Airport View

Enter AWOS ICAO identifier for current METAR.

ex. KFNL

KLUA 191850Z AUTO 31006G16KT 10SM OVC060 02/M08 A2993 RMK AO2

19 Jan 2020 18:51

Frequency: 118.275

Phone: 540-743-1148

Other Area AWOS: K8W2 - KFRR - KVBW - KSHD

TAF KCHO 191725Z 1918/2018 30011G18KT P6SM SCT045 FM192200 31010KT P6SM SCT045 FM200300 31007KT P6SM FEW250 FM200600 30006KT P6SM FEW060 FM201200 34007KT P6SM FEW050